Pitt, Minnesota
Current Conditions -  °F | °C
As of 1:53 PM on Tuesday 21 Oct 2014 (Local Time) from KBDE Reporting Station
Clear Clear  
Wind Chill: 54°   Ceiling: Unl
Heat Index: 54°   Visibility: 10mi
Dew Point: 38°   Wind: 14mph
Humidity: 55%   Direction: 140°SE
Pressure: 30.07"   Gusts: 21mph
Location:  48.5595°N, 94.661°W
Report Text: KBDE 211853Z AUTO 14012G18KT 10SM CLR 12/03 A3007 RMK AO2 SLP193 T01220033 TSNO
Loading
Personal Weather Stations






























Interactive Weather Map
Tropical Storm Tracking
New forecast layout! Learn more

10-Day Weather Forecast

Advertisements
Track Severe Weather on mobile